sensor_id;sensor_type;location;lat;lon;timestamp;P1;durP1;ratioP1;P2;durP2;ratioP2
13197;SDS011;6664;52.514;13.440;2023-04-15T00:00:28;22.40;;;13.80;;
13197;SDS011;6664;52.514;13.440;2023-04-15T00:03:15;22.17;;;14.93;;
13197;SDS011;6664;52.514;13.440;2023-04-15T00:06:01;24.10;;;14.30;;
13197;SDS011;6664;52.514;13.440;2023-04-15T00:08:47;20.70;;;12.17;;
13197;SDS011;6664;52.514;13.440;2023-04-15T00:11:34;20.53;;;13.63;;
13197;SDS011;6664;52.514;13.440;2023-04-15T00:14:19;22.00;;;13.83;;
13197;SDS011;6664;52.514;13.440;2023-04-15T00:17:07;24.80;;;14.70;;
13197;SDS011;6664;52.514;13.440;2023-04-15T00:19:57;22.70;;;13.73;;
13197;SDS011;6664;52.514;13.440;2023-04-15T00:22:44;23.40;;;14.17;;
13197;SDS011;6664;52.514;13.440;2023-04-15T00:25:32;22.50;;;14.50;;
13197;SDS011;6664;52.514;13.440;2023-04-15T00:28:18;21.53;;;13.83;;
13197;SDS011;6664;52.514;13.440;2023-04-15T00:31:03;28.93;;;15.17;;
13197;SDS011;6664;52.514;13.440;2023-04-15T00:33:49;26.03;;;13.50;;
13197;SDS011;6664;52.514;13.440;2023-04-15T00:36:35;24.47;;;14.60;;
13197;SDS011;6664;52.514;13.440;2023-04-15T00:39:23;25.90;;;14.70;;
13197;SDS011;6664;52.514;13.440;2023-04-15T00:42:09;24.40;;;14.87;;
13197;SDS011;6664;52.514;13.440;2023-04-15T00:44:55;26.20;;;15.00;;
13197;SDS011;6664;52.514;13.440;2023-04-15T00:47:41;26.10;;;14.50;;
13197;SDS011;6664;52.514;13.440;2023-04-15T00:50:28;24.57;;;15.17;;
13197;SDS011;6664;52.514;13.440;2023-04-15T00:53:13;21.93;;;12.87;;
13197;SDS011;6664;52.514;13.440;2023-04-15T00:55:58;23.13;;;15.83;;
13197;SDS011;6664;52.514;13.440;2023-04-15T00:58:44;27.30;;;15.37;;
13197;SDS011;6664;52.514;13.440;2023-04-15T01:01:29;50.70;;;14.60;;
13197;SDS011;6664;52.514;13.440;2023-04-15T01:04:16;25.13;;;14.93;;
13197;SDS011;6664;52.514;13.440;2023-04-15T01:07:02;26.10;;;15.67;;
13197;SDS011;6664;52.514;13.440;2023-04-15T01:09:52;29.50;;;16.73;;
13197;SDS011;6664;52.514;13.440;2023-04-15T01:12:38;24.77;;;15.10;;
13197;SDS011;6664;52.514;13.440;2023-04-15T01:15:23;27.37;;;15.43;;
13197;SDS011;6664;52.514;13.440;2023-04-15T01:18:09;27.13;;;15.27;;
13197;SDS011;6664;52.514;13.440;2023-04-15T01:20:55;32.53;;;16.53;;
13197;SDS011;6664;52.514;13.440;2023-04-15T01:23:44;25.47;;;15.40;;
13197;SDS011;6664;52.514;13.440;2023-04-15T01:26:38;28.87;;;16.17;;
13197;SDS011;6664;52.514;13.440;2023-04-15T01:29:27;27.23;;;17.03;;
13197;SDS011;6664;52.514;13.440;2023-04-15T01:32:13;29.27;;;16.33;;
13197;SDS011;6664;52.514;13.440;2023-04-15T01:34:59;29.77;;;15.77;;
13197;SDS011;6664;52.514;13.440;2023-04-15T01:37:44;30.40;;;15.93;;
13197;SDS011;6664;52.514;13.440;2023-04-15T01:40:31;25.53;;;15.57;;
13197;SDS011;6664;52.514;13.440;2023-04-15T01:43:20;32.27;;;16.40;;
13197;SDS011;6664;52.514;13.440;2023-04-15T01:46:06;30.13;;;16.20;;
13197;SDS011;6664;52.514;13.440;2023-04-15T01:48:51;33.80;;;17.30;;
13197;SDS011;6664;52.514;13.440;2023-04-15T01:51:37;28.30;;;16.20;;
13197;SDS011;6664;52.514;13.440;2023-04-15T01:54:23;30.07;;;17.00;;
13197;SDS011;6664;52.514;13.440;2023-04-15T01:57:09;27.43;;;15.77;;
13197;SDS011;6664;52.514;13.440;2023-04-15T01:59:56;34.20;;;17.33;;
13197;SDS011;6664;52.514;13.440;2023-04-15T02:02:44;27.13;;;15.80;;
13197;SDS011;6664;52.514;13.440;2023-04-15T02:05:31;27.47;;;15.40;;
13197;SDS011;6664;52.514;13.440;2023-04-15T02:08:17;33.50;;;17.87;;
13197;SDS011;6664;52.514;13.440;2023-04-15T02:11:03;32.57;;;16.90;;
13197;SDS011;6664;52.514;13.440;2023-04-15T02:13:51;27.20;;;15.70;;
13197;SDS011;6664;52.514;13.440;2023-04-15T02:16:36;30.57;;;16.87;;
13197;SDS011;6664;52.514;13.440;2023-04-15T02:19:22;31.10;;;16.70;;
13197;SDS011;6664;52.514;13.440;2023-04-15T02:22:08;29.47;;;15.80;;
13197;SDS011;6664;52.514;13.440;2023-04-15T02:24:55;28.37;;;16.87;;
13197;SDS011;6664;52.514;13.440;2023-04-15T02:27:40;28.30;;;15.63;;
13197;SDS011;6664;52.514;13.440;2023-04-15T02:30:28;28.83;;;15.83;;
13197;SDS011;6664;52.514;13.440;2023-04-15T02:33:14;29.60;;;15.27;;
13197;SDS011;6664;52.514;13.440;2023-04-15T02:36:00;27.87;;;15.53;;
13197;SDS011;6664;52.514;13.440;2023-04-15T02:38:45;29.13;;;16.17;;
13197;SDS011;6664;52.514;13.440;2023-04-15T02:41:32;33.20;;;17.07;;
13197;SDS011;6664;52.514;13.440;2023-04-15T02:44:18;28.80;;;15.30;;
13197;SDS011;6664;52.514;13.440;2023-04-15T02:47:04;34.70;;;16.90;;
13197;SDS011;6664;52.514;13.440;2023-04-15T02:49:51;33.07;;;17.80;;
13197;SDS011;6664;52.514;13.440;2023-04-15T02:52:37;29.83;;;16.83;;
13197;SDS011;6664;52.514;13.440;2023-04-15T02:55:26;30.00;;;16.30;;
13197;SDS011;6664;52.514;13.440;2023-04-15T02:58:12;28.77;;;16.53;;
13197;SDS011;6664;52.514;13.440;2023-04-15T03:00:58;30.90;;;16.83;;
13197;SDS011;6664;52.514;13.440;2023-04-15T03:03:46;31.47;;;15.53;;
13197;SDS011;6664;52.514;13.440;2023-04-15T03:06:34;24.50;;;15.27;;
13197;SDS011;6664;52.514;13.440;2023-04-15T03:09:20;26.13;;;15.23;;
13197;SDS011;6664;52.514;13.440;2023-04-15T03:12:08;24.63;;;14.53;;
13197;SDS011;6664;52.514;13.440;2023-04-15T03:14:54;30.50;;;14.60;;
13197;SDS011;6664;52.514;13.440;2023-04-15T03:17:39;26.97;;;16.40;;
13197;SDS011;6664;52.514;13.440;2023-04-15T03:20:25;27.93;;;16.20;;
13197;SDS011;6664;52.514;13.440;2023-04-15T03:23:13;32.30;;;15.27;;
13197;SDS011;6664;52.514;13.440;2023-04-15T03:26:02;26.33;;;15.07;;
13197;SDS011;6664;52.514;13.440;2023-04-15T03:28:50;30.63;;;16.33;;
13197;SDS011;6664;52.514;13.440;2023-04-15T03:31:35;30.07;;;15.70;;
13197;SDS011;6664;52.514;13.440;2023-04-15T03:34:21;27.23;;;15.97;;
13197;SDS011;6664;52.514;13.440;2023-04-15T03:37:06;29.07;;;15.30;;
13197;SDS011;6664;52.514;13.440;2023-04-15T03:39:54;30.73;;;14.73;;
13197;SDS011;6664;52.514;13.440;2023-04-15T03:42:40;26.07;;;15.40;;
13197;SDS011;6664;52.514;13.440;2023-04-15T03:45:25;26.40;;;15.57;;
13197;SDS011;6664;52.514;13.440;2023-04-15T03:48:11;26.70;;;14.13;;
13197;SDS011;6664;52.514;13.440;2023-04-15T03:51:02;29.13;;;16.57;;
13197;SDS011;6664;52.514;13.440;2023-04-15T03:53:47;26.57;;;14.10;;
13197;SDS011;6664;52.514;13.440;2023-04-15T03:56:33;26.17;;;14.50;;
13197;SDS011;6664;52.514;13.440;2023-04-15T03:59:18;22.67;;;14.50;;
13197;SDS011;6664;52.514;13.440;2023-04-15T04:02:04;24.27;;;13.43;;
13197;SDS011;6664;52.514;13.440;2023-04-15T04:04:49;23.23;;;12.60;;
13197;SDS011;6664;52.514;13.440;2023-04-15T04:07:37;25.53;;;14.20;;
13197;SDS011;6664;52.514;13.440;2023-04-15T04:10:23;24.17;;;13.57;;
13197;SDS011;6664;52.514;13.440;2023-04-15T04:13:08;25.40;;;14.27;;
13197;SDS011;6664;52.514;13.440;2023-04-15T04:15:54;26.10;;;13.90;;
13197;SDS011;6664;52.514;13.440;2023-04-15T04:18:42;25.43;;;14.00;;
13197;SDS011;6664;52.514;13.440;2023-04-15T04:21:27;21.27;;;14.33;;
13197;SDS011;6664;52.514;13.440;2023-04-15T04:24:18;22.47;;;13.80;;
13197;SDS011;6664;52.514;13.440;2023-04-15T04:27:03;26.20;;;14.57;;
13197;SDS011;6664;52.514;13.440;2023-04-15T04:29:50;26.13;;;15.80;;
13197;SDS011;6664;52.514;13.440;2023-04-15T04:32:36;22.03;;;13.93;;
13197;SDS011;6664;52.514;13.440;2023-04-15T04:35:21;22.73;;;12.80;;
13197;SDS011;6664;52.514;13.440;2023-04-15T04:38:07;23.27;;;13.37;;
13197;SDS011;6664;52.514;13.440;2023-04-15T04:40:52;21.67;;;14.03;;
13197;SDS011;6664;52.514;13.440;2023-04-15T04:43:39;22.70;;;13.23;;
13197;SDS011;6664;52.514;13.440;2023-04-15T04:46:25;23.13;;;13.40;;
13197;SDS011;6664;52.514;13.440;2023-04-15T04:49:10;23.70;;;14.63;;
13197;SDS011;6664;52.514;13.440;2023-04-15T04:51:56;19.00;;;11.50;;
13197;SDS011;6664;52.514;13.440;2023-04-15T04:54:41;23.87;;;13.43;;
13197;SDS011;6664;52.514;13.440;2023-04-15T04:57:27;19.30;;;10.93;;
13197;SDS011;6664;52.514;13.440;2023-04-15T05:00:16;28.00;;;13.73;;
13197;SDS011;6664;52.514;13.440;2023-04-15T05:03:02;17.20;;;11.70;;
13197;SDS011;6664;52.514;13.440;2023-04-15T05:05:47;21.47;;;11.80;;
13197;SDS011;6664;52.514;13.440;2023-04-15T05:08:33;15.63;;;11.23;;
13197;SDS011;6664;52.514;13.440;2023-04-15T05:11:18;15.87;;;11.13;;
13197;SDS011;6664;52.514;13.440;2023-04-15T05:14:04;17.10;;;11.00;;
13197;SDS011;6664;52.514;13.440;2023-04-15T05:16:50;20.73;;;11.33;;
13197;SDS011;6664;52.514;13.440;2023-04-15T05:19:36;16.60;;;9.80;;
13197;SDS011;6664;52.514;13.440;2023-04-15T05:22:22;13.27;;;9.83;;
13197;SDS011;6664;52.514;13.440;2023-04-15T05:25:09;15.40;;;10.37;;
13197;SDS011;6664;52.514;13.440;2023-04-15T05:27:55;14.50;;;8.70;;
13197;SDS011;6664;52.514;13.440;2023-04-15T05:30:44;15.30;;;9.43;;
13197;SDS011;6664;52.514;13.440;2023-04-15T05:33:30;16.43;;;10.80;;
13197;SDS011;6664;52.514;13.440;2023-04-15T05:36:19;12.17;;;9.13;;
13197;SDS011;6664;52.514;13.440;2023-04-15T05:39:04;12.13;;;8.87;;
13197;SDS011;6664;52.514;13.440;2023-04-15T05:41:51;15.73;;;9.20;;
13197;SDS011;6664;52.514;13.440;2023-04-15T05:44:37;14.70;;;8.87;;
13197;SDS011;6664;52.514;13.440;2023-04-15T05:47:22;11.33;;;8.23;;
13197;SDS011;6664;52.514;13.440;2023-04-15T05:50:07;12.20;;;8.23;;
13197;SDS011;6664;52.514;13.440;2023-04-15T05:52:53;14.20;;;9.70;;
13197;SDS011;6664;52.514;13.440;2023-04-15T05:55:39;13.13;;;9.27;;
13197;SDS011;6664;52.514;13.440;2023-04-15T05:58:25;18.10;;;10.57;;
13197;SDS011;6664;52.514;13.440;2023-04-15T06:01:11;16.30;;;8.87;;
13197;SDS011;6664;52.514;13.440;2023-04-15T06:03:56;11.60;;;8.03;;
13197;SDS011;6664;52.514;13.440;2023-04-15T06:06:41;12.87;;;8.93;;
13197;SDS011;6664;52.514;13.440;2023-04-15T06:09:27;12.30;;;9.00;;
13197;SDS011;6664;52.514;13.440;2023-04-15T06:12:12;12.23;;;8.40;;
13197;SDS011;6664;52.514;13.440;2023-04-15T06:14:58;11.17;;;8.20;;
13197;SDS011;6664;52.514;13.440;2023-04-15T06:17:44;9.57;;;6.80;;
13197;SDS011;6664;52.514;13.440;2023-04-15T06:20:30;9.97;;;7.67;;
13197;SDS011;6664;52.514;13.440;2023-04-15T06:23:15;9.70;;;6.70;;
13197;SDS011;6664;52.514;13.440;2023-04-15T06:26:01;10.73;;;7.87;;
13197;SDS011;6664;52.514;13.440;2023-04-15T06:28:47;14.20;;;7.60;;
13197;SDS011;6664;52.514;13.440;2023-04-15T06:31:32;10.93;;;7.23;;
13197;SDS011;6664;52.514;13.440;2023-04-15T06:34:18;8.70;;;7.30;;
13197;SDS011;6664;52.514;13.440;2023-04-15T06:37:04;10.60;;;8.37;;
13197;SDS011;6664;52.514;13.440;2023-04-15T06:39:50;10.00;;;7.60;;
13197;SDS011;6664;52.514;13.440;2023-04-15T06:42:35;14.40;;;6.87;;
13197;SDS011;6664;52.514;13.440;2023-04-15T06:45:22;9.43;;;7.77;;
13197;SDS011;6664;52.514;13.440;2023-04-15T06:48:08;8.87;;;7.27;;
13197;SDS011;6664;52.514;13.440;2023-04-15T06:50:53;8.37;;;6.47;;
13197;SDS011;6664;52.514;13.440;2023-04-15T06:53:42;8.30;;;6.03;;
13197;SDS011;6664;52.514;13.440;2023-04-15T06:56:28;12.10;;;7.00;;
13197;SDS011;6664;52.514;13.440;2023-04-15T06:59:16;8.27;;;6.20;;
13197;SDS011;6664;52.514;13.440;2023-04-15T07:02:02;12.90;;;6.20;;
13197;SDS011;6664;52.514;13.440;2023-04-15T07:04:47;8.87;;;6.47;;
13197;SDS011;6664;52.514;13.440;2023-04-15T07:07:33;8.53;;;6.67;;
13197;SDS011;6664;52.514;13.440;2023-04-15T07:10:20;9.00;;;5.90;;
13197;SDS011;6664;52.514;13.440;2023-04-15T07:13:09;8.93;;;6.67;;
13197;SDS011;6664;52.514;13.440;2023-04-15T07:15:54;8.40;;;6.20;;
13197;SDS011;6664;52.514;13.440;2023-04-15T07:18:40;7.80;;;5.50;;
13197;SDS011;6664;52.514;13.440;2023-04-15T07:21:26;14.43;;;6.57;;
13197;SDS011;6664;52.514;13.440;2023-04-15T07:24:11;7.73;;;5.50;;
13197;SDS011;6664;52.514;13.440;2023-04-15T07:27:00;9.50;;;6.80;;
13197;SDS011;6664;52.514;13.440;2023-04-15T07:29:48;6.00;;;5.40;;
13197;SDS011;6664;52.514;13.440;2023-04-15T07:32:35;6.83;;;6.13;;
13197;SDS011;6664;52.514;13.440;2023-04-15T07:35:21;16.63;;;6.37;;
13197;SDS011;6664;52.514;13.440;2023-04-15T07:38:07;8.37;;;5.53;;
13197;SDS011;6664;52.514;13.440;2023-04-15T07:40:53;6.53;;;5.70;;
13197;SDS011;6664;52.514;13.440;2023-04-15T07:43:38;10.90;;;6.00;;
13197;SDS011;6664;52.514;13.440;2023-04-15T07:46:29;8.87;;;6.90;;
13197;SDS011;6664;52.514;13.440;2023-04-15T07:49:15;7.50;;;5.80;;
13197;SDS011;6664;52.514;13.440;2023-04-15T07:52:03;7.20;;;6.10;;
13197;SDS011;6664;52.514;13.440;2023-04-15T07:54:50;11.90;;;6.77;;
13197;SDS011;6664;52.514;13.440;2023-04-15T07:57:36;9.90;;;6.73;;
13197;SDS011;6664;52.514;13.440;2023-04-15T08:00:23;8.33;;;5.77;;
13197;SDS011;6664;52.514;13.440;2023-04-15T08:03:11;8.60;;;6.90;;
13197;SDS011;6664;52.514;13.440;2023-04-15T08:06:00;6.57;;;5.27;;
13197;SDS011;6664;52.514;13.440;2023-04-15T08:08:46;10.40;;;6.30;;
13197;SDS011;6664;52.514;13.440;2023-04-15T08:11:32;8.63;;;6.20;;
13197;SDS011;6664;52.514;13.440;2023-04-15T08:14:20;7.83;;;6.43;;
13197;SDS011;6664;52.514;13.440;2023-04-15T08:17:06;8.80;;;6.33;;
13197;SDS011;6664;52.514;13.440;2023-04-15T08:19:52;8.70;;;6.77;;
13197;SDS011;6664;52.514;13.440;2023-04-15T08:22:37;7.47;;;5.90;;
13197;SDS011;6664;52.514;13.440;2023-04-15T08:25:26;6.60;;;5.90;;
13197;SDS011;6664;52.514;13.440;2023-04-15T08:28:12;10.30;;;6.83;;
13197;SDS011;6664;52.514;13.440;2023-04-15T08:30:57;7.60;;;6.77;;
13197;SDS011;6664;52.514;13.440;2023-04-15T08:33:45;10.83;;;6.70;;
13197;SDS011;6664;52.514;13.440;2023-04-15T08:36:35;7.77;;;6.93;;
13197;SDS011;6664;52.514;13.440;2023-04-15T08:39:21;11.07;;;6.67;;
13197;SDS011;6664;52.514;13.440;2023-04-15T08:42:15;7.67;;;6.77;;
13197;SDS011;6664;52.514;13.440;2023-04-15T08:45:03;8.40;;;6.57;;
13197;SDS011;6664;52.514;13.440;2023-04-15T08:47:50;9.60;;;6.90;;
13197;SDS011;6664;52.514;13.440;2023-04-15T08:50:40;7.03;;;6.00;;
13197;SDS011;6664;52.514;13.440;2023-04-15T08:53:27;7.60;;;6.70;;
13197;SDS011;6664;52.514;13.440;2023-04-15T08:56:14;11.43;;;6.10;;
13197;SDS011;6664;52.514;13.440;2023-04-15T08:59:00;8.50;;;6.30;;
13197;SDS011;6664;52.514;13.440;2023-04-15T09:01:48;11.00;;;7.30;;
13197;SDS011;6664;52.514;13.440;2023-04-15T09:04:39;9.63;;;7.40;;
13197;SDS011;6664;52.514;13.440;2023-04-15T09:07:25;10.23;;;6.97;;
13197;SDS011;6664;52.514;13.440;2023-04-15T09:10:10;8.47;;;7.00;;
13197;SDS011;6664;52.514;13.440;2023-04-15T09:12:57;10.17;;;7.30;;
13197;SDS011;6664;52.514;13.440;2023-04-15T09:15:48;8.53;;;6.77;;
13197;SDS011;6664;52.514;13.440;2023-04-15T09:18:34;11.97;;;6.90;;
13197;SDS011;6664;52.514;13.440;2023-04-15T09:21:21;10.63;;;6.60;;
13197;SDS011;6664;52.514;13.440;2023-04-15T09:24:09;7.63;;;6.77;;
13197;SDS011;6664;52.514;13.440;2023-04-15T09:26:54;6.77;;;5.90;;
13197;SDS011;6664;52.514;13.440;2023-04-15T09:29:42;7.90;;;6.50;;
13197;SDS011;6664;52.514;13.440;2023-04-15T09:32:35;7.30;;;6.10;;
13197;SDS011;6664;52.514;13.440;2023-04-15T09:35:36;9.20;;;7.27;;
13197;SDS011;6664;52.514;13.440;2023-04-15T09:38:24;7.60;;;6.57;;
13197;SDS011;6664;52.514;13.440;2023-04-15T09:41:15;6.73;;;6.03;;
13197;SDS011;6664;52.514;13.440;2023-04-15T09:44:04;5.90;;;5.30;;
13197;SDS011;6664;52.514;13.440;2023-04-15T09:46:50;8.20;;;6.40;;
13197;SDS011;6664;52.514;13.440;2023-04-15T09:49:36;7.70;;;6.10;;
13197;SDS011;6664;52.514;13.440;2023-04-15T09:52:21;7.60;;;6.77;;
13197;SDS011;6664;52.514;13.440;2023-04-15T09:55:07;7.73;;;6.90;;
13197;SDS011;6664;52.514;13.440;2023-04-15T09:57:52;8.63;;;6.50;;
13197;SDS011;6664;52.514;13.440;2023-04-15T10:00:37;6.43;;;5.70;;
13197;SDS011;6664;52.514;13.440;2023-04-15T10:03:26;7.07;;;6.00;;
13197;SDS011;6664;52.514;13.440;2023-04-15T10:06:19;8.83;;;6.60;;
13197;SDS011;6664;52.514;13.440;2023-04-15T10:09:07;7.27;;;6.13;;
13197;SDS011;6664;52.514;13.440;2023-04-15T10:11:53;6.57;;;5.97;;
13197;SDS011;6664;52.514;13.440;2023-04-15T10:14:39;9.20;;;6.40;;
13197;SDS011;6664;52.514;13.440;2023-04-15T10:17:26;8.13;;;6.37;;
13197;SDS011;6664;52.514;13.440;2023-04-15T10:20:15;5.97;;;5.43;;
13197;SDS011;6664;52.514;13.440;2023-04-15T10:23:03;8.43;;;6.40;;
13197;SDS011;6664;52.514;13.440;2023-04-15T10:25:55;6.73;;;5.80;;
13197;SDS011;6664;52.514;13.440;2023-04-15T10:28:43;7.30;;;6.60;;
13197;SDS011;6664;52.514;13.440;2023-04-15T10:31:29;7.83;;;6.63;;
13197;SDS011;6664;52.514;13.440;2023-04-15T10:34:15;7.60;;;6.27;;
13197;SDS011;6664;52.514;13.440;2023-04-15T10:37:02;6.97;;;5.80;;
13197;SDS011;6664;52.514;13.440;2023-04-15T10:39:48;5.73;;;5.20;;
13197;SDS011;6664;52.514;13.440;2023-04-15T10:42:34;6.10;;;5.50;;
13197;SDS011;6664;52.514;13.440;2023-04-15T10:45:22;6.33;;;5.40;;
13197;SDS011;6664;52.514;13.440;2023-04-15T10:48:16;8.80;;;6.33;;
13197;SDS011;6664;52.514;13.440;2023-04-15T10:51:02;7.33;;;6.20;;
13197;SDS011;6664;52.514;13.440;2023-04-15T10:53:49;5.90;;;5.30;;
13197;SDS011;6664;52.514;13.440;2023-04-15T10:56:34;5.50;;;4.97;;
13197;SDS011;6664;52.514;13.440;2023-04-15T10:59:20;7.17;;;6.47;;
13197;SDS011;6664;52.514;13.440;2023-04-15T11:02:08;5.67;;;5.10;;
13197;SDS011;6664;52.514;13.440;2023-04-15T11:05:00;5.60;;;5.10;;
13197;SDS011;6664;52.514;13.440;2023-04-15T11:07:47;7.70;;;6.47;;
13197;SDS011;6664;52.514;13.440;2023-04-15T11:13:24;6.97;;;6.30;;
13197;SDS011;6664;52.514;13.440;2023-04-15T11:16:12;6.77;;;6.07;;
13197;SDS011;6664;52.514;13.440;2023-04-15T11:18:57;6.50;;;5.90;;
13197;SDS011;6664;52.514;13.440;2023-04-15T11:21:43;7.73;;;6.30;;
13197;SDS011;6664;52.514;13.440;2023-04-15T11:24:29;10.07;;;5.83;;
13197;SDS011;6664;52.514;13.440;2023-04-15T11:27:21;6.27;;;5.70;;
13197;SDS011;6664;52.514;13.440;2023-04-15T11:30:17;8.30;;;6.40;;
13197;SDS011;6664;52.514;13.440;2023-04-15T11:33:06;7.90;;;6.20;;
13197;SDS011;6664;52.514;13.440;2023-04-15T11:35:53;6.97;;;5.77;;
13197;SDS011;6664;52.514;13.440;2023-04-15T11:38:42;7.87;;;6.30;;
13197;SDS011;6664;52.514;13.440;2023-04-15T11:41:30;9.40;;;6.80;;
13197;SDS011;6664;52.514;13.440;2023-04-15T11:44:16;7.90;;;5.60;;
13197;SDS011;6664;52.514;13.440;2023-04-15T11:47:20;6.90;;;6.20;;
13197;SDS011;6664;52.514;13.440;2023-04-15T11:50:19;6.63;;;6.00;;
13197;SDS011;6664;52.514;13.440;2023-04-15T11:53:10;7.60;;;6.20;;
13197;SDS011;6664;52.514;13.440;2023-04-15T11:55:57;7.33;;;5.63;;
13197;SDS011;6664;52.514;13.440;2023-04-15T11:58:43;6.17;;;5.50;;
13197;SDS011;6664;52.514;13.440;2023-04-15T12:01:34;5.80;;;5.20;;
13197;SDS011;6664;52.514;13.440;2023-04-15T12:04:23;6.97;;;5.43;;
13197;SDS011;6664;52.514;13.440;2023-04-15T12:07:09;6.07;;;5.10;;
13197;SDS011;6664;52.514;13.440;2023-04-15T12:09:56;8.13;;;6.20;;
13197;SDS011;6664;52.514;13.440;2023-04-15T12:12:42;6.83;;;5.23;;
13197;SDS011;6664;52.514;13.440;2023-04-15T12:15:32;6.33;;;5.73;;
13197;SDS011;6664;52.514;13.440;2023-04-15T12:18:25;5.33;;;4.83;;
13197;SDS011;6664;52.514;13.440;2023-04-15T12:21:11;6.93;;;5.97;;
13197;SDS011;6664;52.514;13.440;2023-04-15T12:23:58;6.17;;;4.90;;
13197;SDS011;6664;52.514;13.440;2023-04-15T12:26:54;5.90;;;5.30;;
13197;SDS011;6664;52.514;13.440;2023-04-15T12:29:41;9.50;;;4.63;;
13197;SDS011;6664;52.514;13.440;2023-04-15T12:32:27;7.50;;;4.87;;
13197;SDS011;6664;52.514;13.440;2023-04-15T12:35:13;4.60;;;4.20;;
13197;SDS011;6664;52.514;13.440;2023-04-15T12:37:59;5.27;;;4.30;;
13197;SDS011;6664;52.514;13.440;2023-04-15T12:40:47;5.40;;;4.57;;
13197;SDS011;6664;52.514;13.440;2023-04-15T12:43:35;5.60;;;5.00;;
13197;SDS011;6664;52.514;13.440;2023-04-15T12:46:20;8.10;;;5.50;;
13197;SDS011;6664;52.514;13.440;2023-04-15T12:49:07;5.17;;;4.67;;
13197;SDS011;6664;52.514;13.440;2023-04-15T12:51:54;5.80;;;4.90;;
13197;SDS011;6664;52.514;13.440;2023-04-15T12:54:40;4.80;;;4.30;;
13197;SDS011;6664;52.514;13.440;2023-04-15T12:57:28;8.07;;;5.47;;
13197;SDS011;6664;52.514;13.440;2023-04-15T13:00:13;5.87;;;4.67;;
13197;SDS011;6664;52.514;13.440;2023-04-15T13:02:59;4.53;;;4.13;;
13197;SDS011;6664;52.514;13.440;2023-04-15T13:05:44;11.77;;;4.80;;
13197;SDS011;6664;52.514;13.440;2023-04-15T13:08:30;4.67;;;4.20;;
13197;SDS011;6664;52.514;13.440;2023-04-15T13:11:18;4.30;;;3.80;;
13197;SDS011;6664;52.514;13.440;2023-04-15T13:14:07;8.07;;;4.97;;
13197;SDS011;6664;52.514;13.440;2023-04-15T13:16:55;5.43;;;4.90;;
13197;SDS011;6664;52.514;13.440;2023-04-15T13:19:40;7.87;;;5.20;;
13197;SDS011;6664;52.514;13.440;2023-04-15T13:22:26;4.53;;;4.13;;
13197;SDS011;6664;52.514;13.440;2023-04-15T13:25:12;6.00;;;4.43;;
13197;SDS011;6664;52.514;13.440;2023-04-15T13:27:57;4.97;;;4.00;;
13197;SDS011;6664;52.514;13.440;2023-04-15T13:30:43;5.73;;;4.40;;
13197;SDS011;6664;52.514;13.440;2023-04-15T13:33:32;6.07;;;4.50;;
13197;SDS011;6664;52.514;13.440;2023-04-15T13:36:18;5.10;;;4.60;;
13197;SDS011;6664;52.514;13.440;2023-04-15T13:39:05;4.40;;;4.00;;
13197;SDS011;6664;52.514;13.440;2023-04-15T13:41:51;5.03;;;4.53;;
13197;SDS011;6664;52.514;13.440;2023-04-15T13:44:41;5.60;;;4.33;;
13197;SDS011;6664;52.514;13.440;2023-04-15T13:47:26;5.40;;;4.90;;
13197;SDS011;6664;52.514;13.440;2023-04-15T13:50:12;7.03;;;4.70;;
13197;SDS011;6664;52.514;13.440;2023-04-15T13:53:00;4.87;;;4.10;;
13197;SDS011;6664;52.514;13.440;2023-04-15T13:55:45;3.63;;;3.33;;
13197;SDS011;6664;52.514;13.440;2023-04-15T13:58:31;6.07;;;3.83;;
13197;SDS011;6664;52.514;13.440;2023-04-15T14:01:16;4.20;;;3.57;;
13197;SDS011;6664;52.514;13.440;2023-04-15T14:04:05;4.90;;;4.20;;
13197;SDS011;6664;52.514;13.440;2023-04-15T14:06:51;4.63;;;3.80;;
13197;SDS011;6664;52.514;13.440;2023-04-15T14:09:36;3.40;;;3.10;;
13197;SDS011;6664;52.514;13.440;2023-04-15T14:12:26;3.30;;;3.03;;
13197;SDS011;6664;52.514;13.440;2023-04-15T14:15:12;6.50;;;3.93;;
13197;SDS011;6664;52.514;13.440;2023-04-15T14:18:00;3.93;;;3.63;;
13197;SDS011;6664;52.514;13.440;2023-04-15T14:20:48;5.93;;;4.13;;
13197;SDS011;6664;52.514;13.440;2023-04-15T14:23:33;4.00;;;3.60;;
13197;SDS011;6664;52.514;13.440;2023-04-15T14:26:18;3.97;;;3.60;;
13197;SDS011;6664;52.514;13.440;2023-04-15T14:29:04;6.03;;;3.70;;
13197;SDS011;6664;52.514;13.440;2023-04-15T14:31:49;4.27;;;3.83;;
13197;SDS011;6664;52.514;13.440;2023-04-15T14:34:55;4.53;;;3.80;;
13197;SDS011;6664;52.514;13.440;2023-04-15T14:37:43;4.10;;;3.70;;
13197;SDS011;6664;52.514;13.440;2023-04-15T14:40:32;5.23;;;4.37;;
13197;SDS011;6664;52.514;13.440;2023-04-15T14:43:17;5.60;;;4.00;;
13197;SDS011;6664;52.514;13.440;2023-04-15T14:46:03;4.03;;;3.73;;
13197;SDS011;6664;52.514;13.440;2023-04-15T14:48:48;4.73;;;4.33;;
13197;SDS011;6664;52.514;13.440;2023-04-15T14:51:37;3.53;;;3.20;;
13197;SDS011;6664;52.514;13.440;2023-04-15T14:54:25;3.83;;;3.53;;
13197;SDS011;6664;52.514;13.440;2023-04-15T14:57:13;4.00;;;3.67;;
13197;SDS011;6664;52.514;13.440;2023-04-15T14:59:59;3.67;;;3.37;;
13197;SDS011;6664;52.514;13.440;2023-04-15T15:02:45;4.47;;;3.83;;
13197;SDS011;6664;52.514;13.440;2023-04-15T15:05:34;4.30;;;3.90;;
13197;SDS011;6664;52.514;13.440;2023-04-15T15:08:22;3.90;;;3.53;;
13197;SDS011;6664;52.514;13.440;2023-04-15T15:11:08;4.10;;;3.57;;
13197;SDS011;6664;52.514;13.440;2023-04-15T15:13:54;3.23;;;2.93;;
13197;SDS011;6664;52.514;13.440;2023-04-15T15:16:43;3.30;;;3.00;;
13197;SDS011;6664;52.514;13.440;2023-04-15T15:19:29;4.33;;;3.93;;
13197;SDS011;6664;52.514;13.440;2023-04-15T15:22:15;4.73;;;4.00;;
13197;SDS011;6664;52.514;13.440;2023-04-15T15:25:05;3.63;;;3.33;;
13197;SDS011;6664;52.514;13.440;2023-04-15T15:27:53;4.53;;;3.20;;
13197;SDS011;6664;52.514;13.440;2023-04-15T15:30:39;4.07;;;3.77;;
13197;SDS011;6664;52.514;13.440;2023-04-15T15:33:24;7.27;;;4.40;;
13197;SDS011;6664;52.514;13.440;2023-04-15T15:36:12;5.17;;;3.60;;
13197;SDS011;6664;52.514;13.440;2023-04-15T15:39:00;6.47;;;3.03;;
13197;SDS011;6664;52.514;13.440;2023-04-15T15:41:46;2.67;;;2.53;;
13197;SDS011;6664;52.514;13.440;2023-04-15T15:44:31;2.70;;;2.50;;
13197;SDS011;6664;52.514;13.440;2023-04-15T15:47:18;3.67;;;3.37;;
13197;SDS011;6664;52.514;13.440;2023-04-15T15:50:05;2.77;;;2.57;;
13197;SDS011;6664;52.514;13.440;2023-04-15T15:52:51;3.13;;;2.90;;
13197;SDS011;6664;52.514;13.440;2023-04-15T15:55:37;3.37;;;3.13;;
13197;SDS011;6664;52.514;13.440;2023-04-15T15:58:25;4.20;;;3.80;;
13197;SDS011;6664;52.514;13.440;2023-04-15T16:01:12;5.80;;;4.10;;
13197;SDS011;6664;52.514;13.440;2023-04-15T16:03:59;4.17;;;3.77;;
13197;SDS011;6664;52.514;13.440;2023-04-15T16:06:45;3.00;;;2.80;;
13197;SDS011;6664;52.514;13.440;2023-04-15T16:09:31;5.17;;;3.77;;
13197;SDS011;6664;52.514;13.440;2023-04-15T16:12:17;5.03;;;3.90;;
13197;SDS011;6664;52.514;13.440;2023-04-15T16:15:03;5.37;;;3.40;;
13197;SDS011;6664;52.514;13.440;2023-04-15T16:17:49;3.87;;;3.57;;
13197;SDS011;6664;52.514;13.440;2023-04-15T16:20:37;4.57;;;3.70;;
13197;SDS011;6664;52.514;13.440;2023-04-15T16:23:23;4.40;;;3.70;;
13197;SDS011;6664;52.514;13.440;2023-04-15T16:26:09;5.43;;;4.33;;
13197;SDS011;6664;52.514;13.440;2023-04-15T16:28:54;4.50;;;3.80;;
13197;SDS011;6664;52.514;13.440;2023-04-15T16:31:40;3.97;;;3.63;;
13197;SDS011;6664;52.514;13.440;2023-04-15T16:34:28;4.27;;;3.43;;
13197;SDS011;6664;52.514;13.440;2023-04-15T16:37:13;3.83;;;3.43;;